Time;durP1;ratioP1;P1;durP2;ratioP2;P2;SDS_P1;SDS_P2;PMS_P1;PMS_P2;Temp;Humidity;BMP_temperature;BMP_pressure;BME280_temperature;BME280_humidity;BME280_pressure;Samples;Min_cycle;Max_cycle;Signal;HPM_P1;HPM_P2
2023/07/03 00:00:43;;;;;;;14.95;6.25;;;;;;;;;;5016058;28;20203;-74
2023/07/03 00:03:13;;;;;;;20.15;6.32;;;;;;;;;;5022605;28;20042;-75
2023/07/03 00:05:49;;;;;;;17.52;6.47;;;;;;;;;;5020728;28;20492;-75
2023/07/03 00:08:16;;;;;;;19.67;6.80;;;;;;;;;;5021495;28;20096;-75
2023/07/03 00:10:42;;;;;;;14.35;6.18;;;;;;;;;;5022624;28;20042;-75
2023/07/03 00:13:08;;;;;;;18.73;6.72;;;;;;;;;;5015083;28;20049;-75
2023/07/03 00:15:34;;;;;;;19.52;6.43;;;;;;;;;;5023222;28;20046;-74
2023/07/03 00:18:01;;;;;;;20.50;6.20;;;;;;;;;;5022778;28;20064;-75
2023/07/03 00:20:27;;;;;;;16.77;5.88;;;;;;;;;;5015685;28;20038;-75
2023/07/03 00:22:54;;;;;;;17.10;6.20;;;;;;;;;;5015983;28;20480;-75
2023/07/03 00:25:20;;;;;;;19.17;6.43;;;;;;;;;;5011078;28;20664;-75
2023/07/03 00:27:47;;;;;;;17.10;6.60;;;;;;;;;;5031774;28;20096;-76
2023/07/03 00:30:13;;;;;;;19.50;5.82;;;;;;;;;;5015652;28;20500;-76
2023/07/03 00:32:39;;;;;;;17.80;6.55;;;;;;;;;;5018000;28;20447;-75
2023/07/03 00:35:06;;;;;;;19.10;6.68;;;;;;;;;;5010460;28;20052;-76
2023/07/03 00:37:33;;;;;;;15.27;5.93;;;;;;;;;;5011624;28;20117;-76
2023/07/03 00:39:59;;;;;;;20.17;6.43;;;;;;;;;;5010589;28;20050;-75
2023/07/03 00:42:29;;;;;;;19.23;6.55;;;;;;;;;;5007668;28;20076;-76
2023/07/03 00:44:55;;;;;;;21.77;7.25;;;;;;;;;;5013296;28;20113;-76
2023/07/03 00:47:22;;;;;;;15.35;5.63;;;;;;;;;;5015551;28;20045;-76
2023/07/03 00:49:48;;;;;;;19.10;6.20;;;;;;;;;;5021265;28;20041;-76
2023/07/03 00:52:15;;;;;;;19.75;6.82;;;;;;;;;;5021935;28;20480;-75
2023/07/03 00:54:41;;;;;;;20.30;5.93;;;;;;;;;;5019593;28;20053;-76
2023/07/03 00:57:11;;;;;;;19.35;6.22;;;;;;;;;;5018302;28;20050;-76
2023/07/03 00:59:37;;;;;;;19.45;6.63;;;;;;;;;;5009984;28;20045;-76
2023/07/03 01:02:07;;;;;;;19.42;6.05;;;;;;;;;;5020326;28;20108;-76
2023/07/03 01:04:38;;;;;;;19.70;6.63;;;;;;;;;;5021576;28;20049;-76
2023/07/03 01:07:09;;;;;;;18.77;6.25;;;;;;;;;;5022356;28;20069;-76
2023/07/03 01:09:40;;;;;;;19.27;5.72;;;;;;;;;;5022564;28;20073;-76
2023/07/03 01:12:07;;;;;;;18.75;6.20;;;;;;;;;;5023794;28;20053;-75
2023/07/03 01:14:34;;;;;;;17.67;6.10;;;;;;;;;;5011196;28;20058;-75
2023/07/03 01:17:00;;;;;;;19.38;6.40;;;;;;;;;;5019806;28;20116;-76
2023/07/03 01:19:31;;;;;;;20.38;6.13;;;;;;;;;;5019740;28;20100;-76
2023/07/03 01:22:10;;;;;;;22.23;6.10;;;;;;;;;;5019557;28;20081;-76
2023/07/03 01:24:48;;;;;;;23.92;7.00;;;;;;;;;;5019584;28;20049;-74
2023/07/03 01:27:16;;;;;;;22.15;6.55;;;;;;;;;;5015760;28;20053;-76
2023/07/03 01:29:43;;;;;;;22.17;6.90;;;;;;;;;;5020945;28;20141;-75
2023/07/03 01:32:10;;;;;;;21.02;6.07;;;;;;;;;;5019576;28;20423;-75
2023/07/03 01:34:37;;;;;;;17.50;6.30;;;;;;;;;;5015145;28;20050;-75
2023/07/03 01:37:04;;;;;;;20.27;6.18;;;;;;;;;;5017311;28;20056;-75
2023/07/03 01:39:30;;;;;;;20.55;7.30;;;;;;;;;;5009556;28;20038;-75
2023/07/03 01:41:57;;;;;;;20.85;6.30;;;;;;;;;;5017028;28;20091;-75
2023/07/03 01:44:23;;;;;;;22.35;6.72;;;;;;;;;;5016049;28;20042;-75
2023/07/03 01:46:49;;;;;;;19.48;5.80;;;;;;;;;;5005724;28;20041;-75
2023/07/03 01:49:16;;;;;;;21.65;6.50;;;;;;;;;;5026849;28;20377;-75
2023/07/03 01:51:48;;;;;;;22.15;6.20;;;;;;;;;;5016826;28;20046;-75
2023/07/03 01:54:21;;;;;;;16.13;5.53;;;;;;;;;;5004228;28;20497;-75
2023/07/03 01:56:50;;;;;;;21.15;6.32;;;;;;;;;;5005333;28;20515;-75
2023/07/03 01:59:18;;;;;;;17.52;5.88;;;;;;;;;;5014037;28;20061;-75
2023/07/03 02:01:55;;;;;;;21.45;6.10;;;;;;;;;;5015248;28;20045;-75
2023/07/03 02:04:23;;;;;;;22.02;6.28;;;;;;;;;;5011901;28;20499;-76
2023/07/03 02:06:49;;;;;;;21.90;6.18;;;;;;;;;;5010907;28;20045;-75
2023/07/03 02:09:15;;;;;;;23.67;6.28;;;;;;;;;;5010598;28;20042;-75
2023/07/03 02:11:44;;;;;;;19.95;6.15;;;;;;;;;;5009939;28;20049;-75
2023/07/03 02:14:11;;;;;;;18.67;6.22;;;;;;;;;;5003597;28;20062;-74
2023/07/03 02:16:38;;;;;;;24.75;6.72;;;;;;;;;;4997469;28;20256;-75
2023/07/03 02:19:05;;;;;;;19.42;6.03;;;;;;;;;;5012599;28;20038;-74
2023/07/03 02:21:31;;;;;;;22.85;5.82;;;;;;;;;;5008927;28;20082;-74
2023/07/03 02:23:57;;;;;;;23.63;6.75;;;;;;;;;;5025965;28;20049;-75
2023/07/03 02:26:23;;;;;;;23.15;6.65;;;;;;;;;;5008131;28;20072;-74
2023/07/03 02:28:50;;;;;;;19.77;6.20;;;;;;;;;;5024198;28;20046;-74
2023/07/03 02:31:16;;;;;;;23.70;6.50;;;;;;;;;;5001590;28;20132;-74
2023/07/03 02:33:42;;;;;;;22.08;6.35;;;;;;;;;;5016730;28;20074;-74
2023/07/03 02:36:08;;;;;;;21.77;6.57;;;;;;;;;;5005231;28;20056;-74
2023/07/03 02:38:34;;;;;;;25.20;6.68;;;;;;;;;;5012489;28;20038;-75
2023/07/03 02:41:02;;;;;;;22.45;6.15;;;;;;;;;;5017610;28;20049;-74
2023/07/03 02:43:28;;;;;;;22.65;5.57;;;;;;;;;;5017248;28;20125;-75
2023/07/03 02:45:54;;;;;;;22.10;5.95;;;;;;;;;;5016422;28;20042;-75
2023/07/03 02:48:20;;;;;;;20.40;5.95;;;;;;;;;;5007753;28;20046;-75
2023/07/03 02:50:46;;;;;;;22.67;5.90;;;;;;;;;;5001733;28;20516;-74
2023/07/03 02:53:12;;;;;;;26.83;6.93;;;;;;;;;;4985891;28;20085;-75
2023/07/03 02:55:38;;;;;;;22.60;6.15;;;;;;;;;;5001899;28;20038;-76
2023/07/03 02:58:04;;;;;;;24.15;5.85;;;;;;;;;;5016924;28;20048;-75
2023/07/03 03:00:30;;;;;;;21.08;5.90;;;;;;;;;;5016787;28;20050;-74
2023/07/03 03:02:56;;;;;;;18.00;5.43;;;;;;;;;;5017438;28;20038;-75
2023/07/03 03:05:22;;;;;;;25.08;6.45;;;;;;;;;;5016619;28;20060;-74
2023/07/03 03:07:48;;;;;;;22.73;6.40;;;;;;;;;;4997270;28;20054;-74
2023/07/03 03:10:14;;;;;;;25.17;6.35;;;;;;;;;;5018512;28;20412;-75
2023/07/03 03:12:40;;;;;;;24.90;6.55;;;;;;;;;;5006922;28;20054;-75
2023/07/03 03:15:07;;;;;;;26.23;6.35;;;;;;;;;;5013964;28;20137;-75
2023/07/03 03:17:33;;;;;;;27.33;6.82;;;;;;;;;;5016047;28;20057;-75
2023/07/03 03:19:59;;;;;;;22.08;5.80;;;;;;;;;;5014223;28;20034;-74
2023/07/03 03:22:25;;;;;;;23.17;6.70;;;;;;;;;;5014148;28;20065;-74
2023/07/03 03:24:51;;;;;;;29.35;6.43;;;;;;;;;;5017779;28;20046;-74
2023/07/03 03:27:17;;;;;;;29.17;6.55;;;;;;;;;;5013411;28;20562;-74
2023/07/03 03:29:44;;;;;;;25.05;6.43;;;;;;;;;;5017155;28;20045;-74
2023/07/03 03:32:10;;;;;;;22.58;6.13;;;;;;;;;;5015204;28;20223;-75
2023/07/03 03:34:36;;;;;;;24.35;5.97;;;;;;;;;;5014971;28;20045;-75
2023/07/03 03:37:03;;;;;;;31.90;6.53;;;;;;;;;;5015450;28;20097;-75
2023/07/03 03:39:29;;;;;;;23.77;6.32;;;;;;;;;;5017647;28;20100;-74
2023/07/03 03:41:55;;;;;;;20.80;5.85;;;;;;;;;;5006737;28;20468;-75
2023/07/03 03:44:21;;;;;;;26.52;6.65;;;;;;;;;;5016555;28;20041;-75
2023/07/03 03:46:47;;;;;;;24.85;6.10;;;;;;;;;;5016139;28;20071;-75
2023/07/03 03:49:13;;;;;;;26.70;6.10;;;;;;;;;;5007145;28;20092;-75
2023/07/03 03:51:40;;;;;;;23.27;5.45;;;;;;;;;;5006950;28;20038;-75
2023/07/03 03:54:08;;;;;;;24.83;5.97;;;;;;;;;;5015187;28;20097;-75
2023/07/03 03:56:34;;;;;;;23.35;6.10;;;;;;;;;;4998011;28;20050;-75
2023/07/03 03:59:01;;;;;;;24.00;6.45;;;;;;;;;;5012771;28;20045;-75
2023/07/03 04:01:27;;;;;;;26.80;6.40;;;;;;;;;;5014698;28;20050;-75
2023/07/03 04:03:53;;;;;;;22.00;5.90;;;;;;;;;;5011084;28;20072;-76
2023/07/03 04:06:19;;;;;;;30.38;6.00;;;;;;;;;;5011438;28;20062;-75
2023/07/03 04:08:45;;;;;;;20.13;5.70;;;;;;;;;;5012011;28;20042;-76
2023/07/03 04:11:12;;;;;;;22.25;5.32;;;;;;;;;;5012421;28;20049;-75
2023/07/03 04:13:38;;;;;;;19.50;5.20;;;;;;;;;;5012663;28;20050;-75
2023/07/03 04:16:04;;;;;;;20.15;5.25;;;;;;;;;;5009813;28;20077;-75
2023/07/03 04:18:31;;;;;;;19.98;5.53;;;;;;;;;;5010296;28;20104;-74
2023/07/03 04:20:58;;;;;;;28.45;6.97;;;;;;;;;;5014211;28;20045;-74
2023/07/03 04:23:24;;;;;;;20.88;4.95;;;;;;;;;;5012544;28;20045;-75
2023/07/03 04:25:51;;;;;;;22.98;5.90;;;;;;;;;;5014601;28;20050;-75
2023/07/03 04:28:20;;;;;;;20.58;5.95;;;;;;;;;;5002000;28;20489;-76
2023/07/03 04:30:47;;;;;;;22.33;5.88;;;;;;;;;;5016507;28;20456;-76
2023/07/03 04:33:13;;;;;;;19.40;5.15;;;;;;;;;;5017647;28;20042;-75
2023/07/03 04:35:39;;;;;;;26.23;5.50;;;;;;;;;;5015892;28;20101;-76
2023/07/03 04:38:06;;;;;;;23.63;5.63;;;;;;;;;;5001078;28;20068;-75
2023/07/03 04:40:33;;;;;;;21.73;5.78;;;;;;;;;;4998099;28;20453;-75
2023/07/03 04:42:59;;;;;;;22.75;6.15;;;;;;;;;;4997696;28;20121;-75
2023/07/03 04:45:26;;;;;;;20.63;5.35;;;;;;;;;;5007199;28;20057;-75
2023/07/03 04:47:53;;;;;;;18.38;5.57;;;;;;;;;;5006985;28;20045;-75
2023/07/03 04:50:25;;;;;;;25.27;5.53;;;;;;;;;;5022522;28;20053;-75
2023/07/03 04:52:51;;;;;;;23.15;5.57;;;;;;;;;;5020526;28;20050;-74
2023/07/03 04:55:17;;;;;;;17.77;4.68;;;;;;;;;;5019545;28;20107;-74
2023/07/03 04:57:44;;;;;;;20.92;5.07;;;;;;;;;;5019121;28;20049;-75
2023/07/03 05:00:14;;;;;;;22.10;6.50;;;;;;;;;;5018611;28;20057;-75
2023/07/03 05:02:41;;;;;;;19.25;4.63;;;;;;;;;;5020161;28;20049;-75
2023/07/03 05:05:07;;;;;;;21.27;5.10;;;;;;;;;;5021158;28;20068;-75
2023/07/03 05:07:33;;;;;;;18.20;4.78;;;;;;;;;;5019971;28;20049;-76
2023/07/03 05:09:59;;;;;;;17.25;4.85;;;;;;;;;;5019427;28;20042;-74
2023/07/03 05:12:25;;;;;;;13.90;3.72;;;;;;;;;;5011697;28;20089;-75
2023/07/03 05:14:51;;;;;;;15.85;4.60;;;;;;;;;;5018600;28;20058;-75
2023/07/03 05:17:18;;;;;;;14.50;3.67;;;;;;;;;;5020440;28;20058;-74
2023/07/03 05:19:45;;;;;;;16.05;3.83;;;;;;;;;;5020760;28;20050;-75
2023/07/03 05:22:11;;;;;;;19.13;4.30;;;;;;;;;;5010360;28;20042;-75
2023/07/03 05:24:37;;;;;;;18.75;4.50;;;;;;;;;;5020113;28;20081;-76
2023/07/03 05:27:03;;;;;;;20.30;3.90;;;;;;;;;;5024216;28;20044;-75
2023/07/03 05:29:29;;;;;;;17.75;4.07;;;;;;;;;;5026115;28;20109;-75
2023/07/03 05:31:55;;;;;;;14.70;3.13;;;;;;;;;;5020360;28;20044;-75
2023/07/03 05:34:21;;;;;;;16.23;3.72;;;;;;;;;;5020440;28;20073;-74
2023/07/03 05:36:47;;;;;;;11.07;2.83;;;;;;;;;;5019809;28;20042;-74
2023/07/03 05:39:13;;;;;;;14.88;3.47;;;;;;;;;;5021201;28;20049;-75
2023/07/03 05:41:39;;;;;;;10.05;2.70;;;;;;;;;;5021172;28;20117;-75
2023/07/03 05:44:08;;;;;;;15.55;2.88;;;;;;;;;;5021333;28;20049;-75
2023/07/03 05:46:34;;;;;;;13.18;2.88;;;;;;;;;;5022153;28;20046;-75
2023/07/03 05:49:00;;;;;;;10.40;2.70;;;;;;;;;;5008900;28;20054;-76
2023/07/03 05:51:27;;;;;;;11.50;2.80;;;;;;;;;;5020516;28;20042;-74
2023/07/03 05:53:54;;;;;;;12.55;2.78;;;;;;;;;;5020769;28;20045;-75
2023/07/03 05:56:20;;;;;;;12.02;2.70;;;;;;;;;;4999572;28;20057;-75
2023/07/03 05:58:46;;;;;;;11.65;2.55;;;;;;;;;;5011633;28;20104;-75
2023/07/03 06:01:12;;;;;;;13.98;3.33;;;;;;;;;;5019377;28;20054;-76
2023/07/03 06:03:42;;;;;;;13.43;2.72;;;;;;;;;;5018684;28;20296;-75
2023/07/03 06:06:08;;;;;;;10.60;2.43;;;;;;;;;;5021468;28;20046;-76
2023/07/03 06:08:35;;;;;;;30.55;3.13;;;;;;;;;;5020043;28;20105;-75
2023/07/03 06:11:01;;;;;;;10.85;2.55;;;;;;;;;;5017254;28;20097;-75
2023/07/03 06:13:27;;;;;;;8.88;2.45;;;;;;;;;;5017490;28;20080;-76
2023/07/03 06:15:53;;;;;;;8.55;2.35;;;;;;;;;;5018617;28;20586;-75
2023/07/03 06:18:19;;;;;;;11.20;2.45;;;;;;;;;;5018394;28;20080;-75
2023/07/03 06:20:45;;;;;;;12.57;2.67;;;;;;;;;;5037068;28;20042;-75
2023/07/03 06:23:11;;;;;;;11.65;2.70;;;;;;;;;;5021316;28;20053;-75
2023/07/03 06:25:37;;;;;;;11.10;2.38;;;;;;;;;;5016294;28;20069;-76
2023/07/03 06:28:03;;;;;;;9.73;2.08;;;;;;;;;;5010282;28;20054;-74
2023/07/03 06:30:29;;;;;;;13.63;3.05;;;;;;;;;;5017442;28;20046;-75
2023/07/03 06:32:55;;;;;;;11.55;2.45;;;;;;;;;;5021104;28;20133;-74
2023/07/03 06:35:21;;;;;;;10.45;2.33;;;;;;;;;;5017582;28;20042;-75
2023/07/03 06:37:47;;;;;;;12.50;2.55;;;;;;;;;;5024217;28;20125;-75
2023/07/03 06:40:15;;;;;;;12.18;2.95;;;;;;;;;;5020378;28;20131;-76
2023/07/03 06:42:42;;;;;;;10.35;2.33;;;;;;;;;;5020592;28;20562;-76
2023/07/03 06:45:08;;;;;;;10.43;2.10;;;;;;;;;;5010670;28;20046;-74
2023/07/03 06:47:34;;;;;;;10.80;2.30;;;;;;;;;;5002037;28;20050;-75
2023/07/03 06:50:00;;;;;;;11.85;2.50;;;;;;;;;;5004703;28;20049;-74
2023/07/03 06:52:26;;;;;;;9.30;2.25;;;;;;;;;;5020305;28;20577;-74
2023/07/03 06:54:52;;;;;;;11.00;2.22;;;;;;;;;;5020371;28;20420;-74
2023/07/03 06:57:18;;;;;;;10.20;2.30;;;;;;;;;;5018077;28;20048;-74
2023/07/03 06:59:44;;;;;;;9.40;1.80;;;;;;;;;;5018056;28;20076;-73
2023/07/03 07:02:11;;;;;;;9.23;2.10;;;;;;;;;;5021082;28;20124;-73
2023/07/03 07:04:37;;;;;;;9.32;2.22;;;;;;;;;;5016800;28;20061;-74
2023/07/03 07:07:03;;;;;;;8.70;1.95;;;;;;;;;;5016154;28;20102;-73
2023/07/03 07:09:29;;;;;;;9.55;2.13;;;;;;;;;;5016726;28;20129;-74
2023/07/03 07:11:55;;;;;;;12.27;2.45;;;;;;;;;;5012956;28;20117;-74
2023/07/03 07:14:21;;;;;;;9.82;2.47;;;;;;;;;;5018211;28;20701;-74
2023/07/03 07:16:47;;;;;;;8.23;2.20;;;;;;;;;;5012110;28;20061;-73
2023/07/03 07:19:13;;;;;;;11.00;2.53;;;;;;;;;;5012874;28;20123;-75
2023/07/03 07:21:43;;;;;;;12.95;2.40;;;;;;;;;;5018164;28;20046;-73
2023/07/03 07:24:13;;;;;;;13.25;2.08;;;;;;;;;;5012244;28;20057;-73
2023/07/03 07:26:39;;;;;;;10.48;2.15;;;;;;;;;;5017270;28;20042;-74
2023/07/03 07:29:06;;;;;;;11.55;2.28;;;;;;;;;;5020483;28;20050;-74
2023/07/03 07:31:32;;;;;;;11.98;2.25;;;;;;;;;;5019811;28;20065;-74
2023/07/03 07:33:58;;;;;;;11.63;2.28;;;;;;;;;;5018128;28;20049;-73
2023/07/03 07:36:26;;;;;;;9.07;2.05;;;;;;;;;;5007053;28;20057;-73
2023/07/03 07:38:53;;;;;;;10.00;2.08;;;;;;;;;;4999869;28;20061;-74
2023/07/03 07:41:19;;;;;;;15.88;2.67;;;;;;;;;;5000017;28;20038;-73
2023/07/03 07:43:47;;;;;;;10.48;2.15;;;;;;;;;;5016437;28;20050;-73
2023/07/03 07:46:13;;;;;;;11.32;2.20;;;;;;;;;;5000755;28;20488;-73
2023/07/03 07:48:39;;;;;;;11.15;2.25;;;;;;;;;;5002341;28;20460;-73
2023/07/03 07:51:09;;;;;;;14.10;2.50;;;;;;;;;;5000187;28;20085;-74
2023/07/03 07:53:36;;;;;;;9.68;1.98;;;;;;;;;;5019290;28;20088;-73
2023/07/03 07:56:02;;;;;;;12.98;2.10;;;;;;;;;;5019917;28;20103;-73
2023/07/03 07:58:28;;;;;;;8.73;1.80;;;;;;;;;;5019313;28;20096;-73
2023/07/03 08:00:57;;;;;;;6.75;1.63;;;;;;;;;;5020722;28;20042;-74
2023/07/03 08:03:23;;;;;;;10.73;2.03;;;;;;;;;;5019778;28;20042;-74
2023/07/03 08:05:49;;;;;;;10.95;1.98;;;;;;;;;;5016020;28;20117;-74
2023/07/03 08:08:15;;;;;;;12.63;2.20;;;;;;;;;;5018736;28;20053;-73
2023/07/03 08:10:41;;;;;;;7.63;1.90;;;;;;;;;;5019201;28;20050;-73
2023/07/03 08:13:08;;;;;;;9.20;1.85;;;;;;;;;;5020385;28;20085;-73
2023/07/03 08:15:34;;;;;;;9.20;1.90;;;;;;;;;;5021528;28;20050;-73
2023/07/03 08:18:00;;;;;;;11.63;2.10;;;;;;;;;;5014009;28;20054;-72
2023/07/03 08:20:26;;;;;;;10.32;2.17;;;;;;;;;;4999706;28;20054;-73
2023/07/03 08:22:52;;;;;;;9.50;1.92;;;;;;;;;;5018879;28;20069;-74
2023/07/03 08:25:18;;;;;;;18.77;2.58;;;;;;;;;;5024799;28;20057;-73
2023/07/03 08:27:47;;;;;;;8.98;2.10;;;;;;;;;;5005439;28;20050;-73
2023/07/03 08:30:14;;;;;;;10.77;2.10;;;;;;;;;;5009577;28;20061;-74
2023/07/03 08:32:43;;;;;;;9.23;1.90;;;;;;;;;;5019961;28;20052;-73
2023/07/03 08:35:09;;;;;;;10.38;1.90;;;;;;;;;;5029833;28;20116;-73
2023/07/03 08:37:35;;;;;;;7.43;1.90;;;;;;;;;;5040536;28;20057;-73
2023/07/03 08:40:01;;;;;;;8.55;1.60;;;;;;;;;;5036613;28;20041;-73
2023/07/03 08:42:29;;;;;;;6.68;1.55;;;;;;;;;;5023468;28;20042;-73
2023/07/03 08:44:57;;;;;;;8.07;1.52;;;;;;;;;;5045259;28;20134;-74
2023/07/03 08:47:25;;;;;;;8.50;1.30;;;;;;;;;;5018700;28;20490;-74
2023/07/03 08:49:52;;;;;;;8.70;1.70;;;;;;;;;;5022336;28;20045;-73
2023/07/03 08:52:28;;;;;;;5.45;1.40;;;;;;;;;;5022431;28;20045;-74
2023/07/03 08:54:55;;;;;;;6.18;1.40;;;;;;;;;;5020917;28;20062;-74
2023/07/03 08:57:22;;;;;;;7.63;1.40;;;;;;;;;;5017042;28;20051;-72
2023/07/03 08:59:48;;;;;;;6.25;1.60;;;;;;;;;;5016447;28;20060;-73
2023/07/03 09:02:23;;;;;;;9.50;1.17;;;;;;;;;;5020783;28;20038;-72
2023/07/03 09:04:54;;;;;;;6.90;1.38;;;;;;;;;;5021122;28;20088;-73
2023/07/03 09:07:27;;;;;;;6.85;1.48;;;;;;;;;;5020069;28;20325;-73
2023/07/03 09:10:15;;;;;;;8.45;1.40;;;;;;;;;;5002116;28;20046;-72
2023/07/03 09:12:45;;;;;;;6.45;1.10;;;;;;;;;;5014620;28;20052;-72
2023/07/03 09:15:17;;;;;;;8.48;1.77;;;;;;;;;;5022071;28;20054;-74
2023/07/03 09:17:44;;;;;;;6.93;1.65;;;;;;;;;;5022096;28;20076;-73
2023/07/03 09:20:10;;;;;;;10.73;2.08;;;;;;;;;;5019938;28;20041;-74
2023/07/03 09:22:51;;;;;;;8.77;1.75;;;;;;;;;;5021331;28;20104;-73
2023/07/03 09:25:21;;;;;;;11.25;1.58;;;;;;;;;;5020276;28;20050;-73
2023/07/03 09:27:51;;;;;;;8.23;1.77;;;;;;;;;;5013838;28;20404;-73
2023/07/03 09:30:18;;;;;;;10.85;2.08;;;;;;;;;;5016169;28;20129;-73
2023/07/03 09:32:44;;;;;;;12.00;2.15;;;;;;;;;;5023510;28;20052;-74
2023/07/03 09:35:15;;;;;;;5.45;1.40;;;;;;;;;;5017995;28;20122;-72
2023/07/03 09:38:04;;;;;;;7.00;1.40;;;;;;;;;;5009351;28;20073;-73
2023/07/03 09:40:35;;;;;;;7.55;1.25;;;;;;;;;;5008468;28;20053;-73
2023/07/03 09:43:02;;;;;;;7.38;1.55;;;;;;;;;;5018680;28;20045;-73
2023/07/03 09:45:33;;;;;;;9.10;1.80;;;;;;;;;;5018963;28;20459;-73
2023/07/03 09:48:01;;;;;;;11.35;1.70;;;;;;;;;;5017270;28;20074;-73
2023/07/03 09:50:29;;;;;;;8.88;1.70;;;;;;;;;;5017966;28;20046;-72
2023/07/03 09:52:56;;;;;;;6.75;1.40;;;;;;;;;;5018340;28;20408;-74
2023/07/03 09:55:22;;;;;;;6.93;1.48;;;;;;;;;;5030088;28;20046;-72
2023/07/03 09:57:49;;;;;;;7.43;1.48;;;;;;;;;;5018314;28;20468;-73
2023/07/03 10:00:16;;;;;;;7.35;1.70;;;;;;;;;;5029295;28;20049;-73
2023/07/03 10:02:43;;;;;;;7.53;1.55;;;;;;;;;;5013546;28;20068;-73
2023/07/03 10:05:19;;;;;;;8.27;1.60;;;;;;;;;;5011337;28;20104;-73
2023/07/03 10:07:46;;;;;;;7.43;1.67;;;;;;;;;;5014038;28;20117;-73
2023/07/03 10:10:15;;;;;;;9.50;1.83;;;;;;;;;;5018963;28;20045;-73
2023/07/03 10:12:45;;;;;;;7.75;1.70;;;;;;;;;;5018896;28;20100;-73
2023/07/03 10:15:20;;;;;;;6.90;2.35;;;;;;;;;;5015794;28;20046;-72
2023/07/03 10:17:49;;;;;;;7.72;1.50;;;;;;;;;;5029808;28;20061;-74
2023/07/03 10:20:18;;;;;;;7.97;1.50;;;;;;;;;;5026527;28;20057;-73
2023/07/03 10:22:44;;;;;;;8.40;1.75;;;;;;;;;;5022969;28;20574;-74
2023/07/03 10:25:19;;;;;;;11.57;1.90;;;;;;;;;;5019129;28;20053;-73
2023/07/03 10:27:46;;;;;;;9.70;1.98;;;;;;;;;;5027427;28;20073;-73
2023/07/03 10:30:15;;;;;;;8.77;1.65;;;;;;;;;;5021341;28;20038;-73
2023/07/03 10:32:42;;;;;;;10.25;1.50;;;;;;;;;;5012833;28;20065;-73
2023/07/03 10:35:14;;;;;;;8.40;1.77;;;;;;;;;;5023445;28;20066;-73
2023/07/03 10:37:47;;;;;;;11.90;1.60;;;;;;;;;;5025093;28;20038;-74
2023/07/03 10:40:22;;;;;;;8.05;1.67;;;;;;;;;;5001024;28;20374;-73
2023/07/03 10:42:51;;;;;;;6.93;1.50;;;;;;;;;;5016869;28;20070;-74
2023/07/03 10:45:17;;;;;;;8.48;1.70;;;;;;;;;;5021725;28;20365;-74
2023/07/03 10:47:52;;;;;;;6.57;1.60;;;;;;;;;;5028709;28;20046;-74
2023/07/03 10:50:19;;;;;;;10.25;1.73;;;;;;;;;;5018877;28;20706;-74
2023/07/03 10:52:54;;;;;;;7.15;1.40;;;;;;;;;;5013866;28;20045;-73
2023/07/03 10:55:38;;;;;;;6.57;1.35;;;;;;;;;;5009561;28;20073;-74
2023/07/03 10:58:25;;;;;;;6.18;1.42;;;;;;;;;;5016322;28;20042;-73
2023/07/03 11:00:51;;;;;;;6.85;1.40;;;;;;;;;;5020950;28;20136;-73
2023/07/03 11:03:24;;;;;;;7.03;1.30;;;;;;;;;;5018950;28;20049;-73
2023/07/03 11:06:03;;;;;;;6.82;1.30;;;;;;;;;;5019787;28;20100;-74
2023/07/03 11:08:46;;;;;;;8.45;1.60;;;;;;;;;;5044466;28;20057;-74
2023/07/03 11:11:30;;;;;;;6.85;1.40;;;;;;;;;;5020561;28;20080;-74
2023/07/03 11:14:04;;;;;;;7.13;1.40;;;;;;;;;;5020505;28;20049;-73
2023/07/03 11:16:36;;;;;;;8.05;1.33;;;;;;;;;;5021321;28;20045;-75
2023/07/03 11:19:21;;;;;;;6.28;1.48;;;;;;;;;;5021562;28;20062;-74
2023/07/03 11:21:50;;;;;;;5.95;1.20;;;;;;;;;;5019319;28;20052;-74
2023/07/03 11:24:24;;;;;;;6.75;1.50;;;;;;;;;;5019430;28;20655;-74
2023/07/03 11:26:50;;;;;;;8.55;1.45;;;;;;;;;;5016199;28;20046;-75
2023/07/03 11:29:17;;;;;;;5.70;1.20;;;;;;;;;;5017171;28;20073;-72
2023/07/03 11:31:45;;;;;;;9.60;1.60;;;;;;;;;;5017738;28;20427;-74
2023/07/03 11:34:13;;;;;;;8.52;1.77;;;;;;;;;;5017215;28;20038;-74
2023/07/03 11:36:42;;;;;;;6.95;1.35;;;;;;;;;;5017360;28;20079;-74
2023/07/03 11:39:15;;;;;;;8.15;1.70;;;;;;;;;;5032793;28;20054;-75
2023/07/03 11:41:52;;;;;;;6.25;1.23;;;;;;;;;;5020266;28;20038;-74
2023/07/03 11:44:20;;;;;;;6.90;1.42;;;;;;;;;;5020698;28;20060;-74
2023/07/03 11:46:54;;;;;;;5.50;1.13;;;;;;;;;;5003221;28;20046;-74
2023/07/03 11:49:24;;;;;;;6.28;1.15;;;;;;;;;;5017674;28;20100;-74
2023/07/03 11:51:56;;;;;;;7.97;1.30;;;;;;;;;;5016492;28;20061;-73
2023/07/03 11:54:23;;;;;;;7.20;1.30;;;;;;;;;;5027583;28;20057;-74
2023/07/03 11:56:52;;;;;;;6.47;1.38;;;;;;;;;;5022469;28;20518;-74
2023/07/03 11:59:24;;;;;;;5.05;1.25;;;;;;;;;;5021723;28;20042;-73
2023/07/03 12:01:52;;;;;;;9.57;1.40;;;;;;;;;;5022450;28;20050;-74
2023/07/03 12:04:37;;;;;;;9.05;1.30;;;;;;;;;;5003915;28;20409;-73
2023/07/03 12:07:03;;;;;;;8.00;1.45;;;;;;;;;;5018499;28;20041;-73
2023/07/03 12:09:30;;;;;;;6.07;1.25;;;;;;;;;;5023675;28;20105;-76
2023/07/03 12:11:59;;;;;;;5.32;1.27;;;;;;;;;;5023926;28;20042;-73
2023/07/03 12:14:46;;;;;;;7.40;1.30;;;;;;;;;;5018051;28;20462;-74
2023/07/03 12:17:16;;;;;;;6.18;1.00;;;;;;;;;;5010885;28;20053;-74
2023/07/03 12:19:42;;;;;;;8.80;1.30;;;;;;;;;;5018662;28;20034;-74
2023/07/03 12:22:08;;;;;;;6.82;1.20;;;;;;;;;;5016521;28;20063;-73
2023/07/03 12:24:34;;;;;;;6.45;1.30;;;;;;;;;;5015760;28;20057;-73
2023/07/03 12:27:04;;;;;;;4.50;1.10;;;;;;;;;;5012641;28;20072;-74
2023/07/03 12:29:32;;;;;;;6.25;1.15;;;;;;;;;;5019008;28;20040;-73
2023/07/03 12:32:05;;;;;;;6.93;1.05;;;;;;;;;;5024469;28;20124;-73
2023/07/03 12:34:32;;;;;;;5.38;1.10;;;;;;;;;;5031030;28;20516;-73
2023/07/03 12:37:06;;;;;;;8.13;1.83;;;;;;;;;;5024742;28;20491;-74
2023/07/03 12:39:32;;;;;;;4.97;1.02;;;;;;;;;;5025342;28;20037;-74
2023/07/03 12:42:05;;;;;;;8.43;1.30;;;;;;;;;;5019552;28;20104;-73
2023/07/03 12:44:31;;;;;;;6.65;1.23;;;;;;;;;;5015052;28;20080;-73
2023/07/03 12:47:06;;;;;;;9.75;1.25;;;;;;;;;;5018639;28;20530;-73
2023/07/03 12:49:32;;;;;;;8.60;1.35;;;;;;;;;;5018772;28;20042;-73
2023/07/03 12:51:59;;;;;;;7.90;1.38;;;;;;;;;;5019869;28;20042;-73
2023/07/03 12:54:25;;;;;;;6.63;1.20;;;;;;;;;;5015788;28;20046;-73
2023/07/03 12:56:52;;;;;;;7.50;1.30;;;;;;;;;;5021722;28;20038;-73
2023/07/03 12:59:19;;;;;;;7.45;1.55;;;;;;;;;;5016142;28;20050;-74
2023/07/03 13:01:50;;;;;;;6.53;1.38;;;;;;;;;;5016218;28;20143;-73
2023/07/03 13:04:25;;;;;;;6.60;1.42;;;;;;;;;;5011965;28;20111;-73
2023/07/03 13:06:51;;;;;;;8.32;1.20;;;;;;;;;;5016214;28;20550;-74
2023/07/03 13:09:17;;;;;;;6.35;1.58;;;;;;;;;;5026752;28;20056;-74
2023/07/03 13:11:44;;;;;;;5.93;1.25;;;;;;;;;;5026980;28;20492;-74
2023/07/03 13:14:10;;;;;;;7.20;1.05;;;;;;;;;;5030804;28;20073;-74
2023/07/03 13:16:36;;;;;;;5.78;1.10;;;;;;;;;;5023802;28;20064;-73
2023/07/03 13:19:04;;;;;;;8.48;1.38;;;;;;;;;;5022232;28;20096;-74
2023/07/03 13:21:30;;;;;;;5.80;1.25;;;;;;;;;;5021974;28;20057;-73
2023/07/03 13:24:04;;;;;;;6.25;1.10;;;;;;;;;;5027144;28;20483;-74
2023/07/03 13:26:31;;;;;;;6.28;1.45;;;;;;;;;;5028861;28;20044;-73
2023/07/03 13:28:59;;;;;;;6.35;1.10;;;;;;;;;;5032620;28;20407;-73
2023/07/03 13:31:26;;;;;;;8.02;1.52;;;;;;;;;;5029231;28;20080;-74
2023/07/03 13:34:07;;;;;;;6.63;1.20;;;;;;;;;;5040936;28;20066;-74
2023/07/03 13:36:36;;;;;;;8.50;1.30;;;;;;;;;;5025563;28;20045;-74
2023/07/03 13:39:02;;;;;;;10.45;1.65;;;;;;;;;;5025303;28;20463;-74
2023/07/03 13:41:28;;;;;;;4.93;1.10;;;;;;;;;;5028777;28;20132;-73
2023/07/03 13:43:58;;;;;;;9.68;1.70;;;;;;;;;;5019520;28;20042;-73
2023/07/03 13:46:25;;;;;;;5.63;1.27;;;;;;;;;;5015660;28;20054;-74
2023/07/03 13:48:51;;;;;;;10.10;1.42;;;;;;;;;;5013564;28;20042;-73
2023/07/03 13:51:17;;;;;;;5.28;1.10;;;;;;;;;;5018908;28;20057;-74
2023/07/03 13:53:43;;;;;;;7.40;1.38;;;;;;;;;;5024604;28;20038;-76
2023/07/03 13:56:09;;;;;;;5.65;1.10;;;;;;;;;;5026302;28;20427;-74
2023/07/03 13:58:35;;;;;;;7.75;1.40;;;;;;;;;;5029538;28;20041;-74
2023/07/03 14:01:02;;;;;;;6.72;1.30;;;;;;;;;;5025210;28;20491;-73
2023/07/03 14:03:28;;;;;;;10.48;1.40;;;;;;;;;;5024514;28;20569;-74
2023/07/03 14:05:55;;;;;;;7.00;1.25;;;;;;;;;;5024989;28;20100;-74
2023/07/03 14:08:21;;;;;;;10.20;1.60;;;;;;;;;;5023135;28;20042;-74
2023/07/03 14:10:47;;;;;;;8.38;1.45;;;;;;;;;;5023687;28;20069;-74
2023/07/03 14:13:13;;;;;;;7.40;1.20;;;;;;;;;;5028330;28;20053;-73
2023/07/03 14:15:40;;;;;;;10.73;1.50;;;;;;;;;;5018974;28;20104;-75
2023/07/03 14:18:06;;;;;;;12.95;1.42;;;;;;;;;;5017833;28;20047;-73
2023/07/03 14:20:32;;;;;;;7.32;1.52;;;;;;;;;;5017141;28;20046;-73
2023/07/03 14:22:58;;;;;;;6.70;1.17;;;;;;;;;;5020643;28;20050;-74
2023/07/03 14:25:24;;;;;;;5.25;1.00;;;;;;;;;;5019654;28;20155;-73
2023/07/03 14:27:51;;;;;;;6.35;1.33;;;;;;;;;;5025888;28;20042;-75
2023/07/03 14:30:17;;;;;;;4.78;1.30;;;;;;;;;;5042462;28;20088;-74
2023/07/03 14:32:44;;;;;;;8.43;1.50;;;;;;;;;;5027363;28;20041;-73
2023/07/03 14:35:10;;;;;;;8.18;1.42;;;;;;;;;;5022903;28;20137;-73
2023/07/03 14:37:37;;;;;;;6.70;1.30;;;;;;;;;;5026202;28;20033;-74
2023/07/03 14:40:04;;;;;;;6.03;1.13;;;;;;;;;;5024743;28;20053;-74